createdAt,value
2023-02-14T00:03:39.719Z,50.58
2023-02-14T00:08:44.678Z,49.95
2023-02-14T00:14:05.157Z,50.05
2023-02-14T00:19:07.142Z,49.05
2023-02-14T00:24:11.862Z,51.05
2023-02-14T00:29:16.011Z,49.78
2023-02-14T00:34:18.352Z,46.80
2023-02-14T00:39:20.300Z,49.00
2023-02-14T00:44:21.926Z,50.55
2023-02-14T00:49:23.414Z,48.50
2023-02-14T00:54:24.946Z,49.47
2023-02-14T00:59:26.480Z,48.67
2023-02-14T01:04:28.039Z,50.60
2023-02-14T01:09:29.629Z,48.63
2023-02-14T01:14:31.220Z,47.20
2023-02-14T01:19:32.839Z,49.60
2023-02-14T01:24:35.355Z,47.75
2023-02-14T01:29:36.913Z,50.10
2023-02-14T01:34:38.502Z,41.30
2023-02-14T01:39:40.407Z,43.80
2023-02-14T01:44:44.861Z,45.55
2023-02-14T01:49:53.497Z,43.05
2023-02-14T01:55:15.248Z,47.08
2023-02-14T02:00:36.126Z,45.10
2023-02-14T02:05:42.111Z,47.50
2023-02-14T02:10:43.621Z,47.15
2023-02-14T02:16:11.348Z,47.15
2023-02-14T02:21:36.098Z,44.45
2023-02-14T02:26:58.984Z,47.17
2023-02-14T02:32:42.302Z,45.78
2023-02-14T02:38:23.556Z,47.40
2023-02-14T02:44:10.365Z,46.65
2023-02-14T02:49:51.044Z,49.10
2023-02-14T02:55:00.850Z,47.90
2023-02-14T03:00:05.109Z,46.55
2023-02-14T03:05:07.016Z,49.00
2023-02-14T03:10:19.722Z,46.53
2023-02-14T03:15:41.380Z,48.00
2023-02-14T03:21:08.772Z,48.58
2023-02-14T03:26:34.778Z,46.45
2023-02-14T03:31:52.052Z,46.97
2023-02-14T03:37:08.486Z,45.67
2023-02-14T03:42:18.884Z,46.80
2023-02-14T03:47:24.574Z,47.60
2023-02-14T03:52:29.133Z,48.22
2023-02-14T03:57:38.430Z,47.28
2023-02-14T04:02:42.041Z,46.00
2023-02-14T04:07:54.640Z,46.85
2023-02-14T04:12:56.190Z,47.15
2023-02-14T04:18:16.154Z,46.70
2023-02-14T04:23:17.703Z,46.15
2023-02-14T04:28:19.228Z,44.70
2023-02-14T04:33:20.814Z,42.33
2023-02-14T04:38:22.365Z,42.35
2023-02-14T04:43:23.944Z,44.38
2023-02-14T04:48:25.463Z,44.97
2023-02-14T04:53:27.107Z,45.20
2023-02-14T04:58:28.627Z,45.97
2023-02-14T05:03:30.159Z,42.53
2023-02-14T05:08:31.621Z,43.72
2023-02-14T05:13:33.104Z,47.22
2023-02-14T05:18:34.615Z,44.83
2023-02-14T05:23:36.430Z,44.05
2023-02-14T05:28:40.894Z,45.15
2023-02-14T05:33:42.505Z,45.38
2023-02-14T05:38:44.088Z,43.92
2023-02-14T05:43:45.544Z,42.65
2023-02-14T05:48:47.029Z,42.70
2023-02-14T05:53:48.600Z,41.20
2023-02-14T05:58:50.085Z,41.30
2023-02-14T06:03:51.674Z,40.50
2023-02-14T06:08:53.211Z,37.80
2023-02-14T06:13:54.740Z,40.33
2023-02-14T06:18:56.265Z,43.03
2023-02-14T06:23:57.809Z,40.28
2023-02-14T06:28:59.641Z,38.17
2023-02-14T06:34:01.180Z,38.25
2023-02-14T06:39:02.905Z,34.95
2023-02-14T06:44:04.673Z,37.20
2023-02-14T06:49:06.226Z,39.35
2023-02-14T06:54:07.715Z,39.10
2023-02-14T06:59:09.185Z,43.70
2023-02-14T07:04:10.671Z,52.75
2023-02-14T07:09:14.661Z,53.28
2023-02-14T07:14:16.158Z,48.25
2023-02-14T07:19:17.656Z,42.17
2023-02-14T07:24:19.176Z,35.88
2023-02-14T07:29:20.713Z,34.80
2023-02-14T07:34:22.315Z,35.25
2023-02-14T07:39:23.827Z,34.72
2023-02-14T07:44:25.421Z,34.70
2023-02-14T07:49:26.958Z,34.67
2023-02-14T07:54:28.495Z,35.45
2023-02-14T07:59:29.973Z,33.33
2023-02-14T08:04:33.737Z,36.17
2023-02-14T08:09:35.401Z,36.83
2023-02-14T08:14:36.969Z,38.25
2023-02-14T08:19:38.454Z,37.10
2023-02-14T08:24:39.996Z,38.08
2023-02-14T08:29:41.477Z,38.25
2023-02-14T08:34:43.028Z,38.75
2023-02-14T08:39:44.526Z,39.10
2023-02-14T08:44:46.050Z,38.38
2023-02-14T08:49:47.602Z,38.58
2023-02-14T08:54:49.158Z,38.03
2023-02-14T08:59:50.768Z,36.50
2023-02-14T09:04:52.308Z,35.75
2023-02-14T09:09:53.874Z,34.20
2023-02-14T09:14:55.417Z,34.65
2023-02-14T09:19:56.990Z,35.17
2023-02-14T09:24:58.527Z,33.28
2023-02-14T09:30:00.161Z,32.80
2023-02-14T09:35:20.243Z,32.95
2023-02-14T09:40:21.926Z,31.85
2023-02-14T09:45:29.119Z,34.22
2023-02-14T09:50:47.348Z,33.85
2023-02-14T09:55:54.059Z,32.63
2023-02-14T10:01:26.316Z,34.65
2023-02-14T10:06:52.429Z,32.53
2023-02-14T10:11:55.265Z,33.90
2023-02-14T10:17:06.931Z,33.25
2023-02-14T10:22:15.220Z,31.83
2023-02-14T10:27:33.669Z,30.52
2023-02-14T10:32:43.578Z,31.75
2023-02-14T10:37:44.986Z,34.13
2023-02-14T10:43:33.272Z,31.88
2023-02-14T10:48:45.731Z,30.00
2023-02-14T10:54:02.536Z,31.70
2023-02-14T10:59:16.957Z,29.67
2023-02-14T11:04:21.647Z,32.25
2023-02-14T11:09:23.163Z,31.23
2023-02-14T11:14:36.739Z,30.90
2023-02-14T11:19:38.841Z,29.38
2023-02-14T11:24:42.298Z,30.75
2023-02-14T11:29:52.364Z,30.05
2023-02-14T11:34:59.713Z,31.60
2023-02-14T11:40:02.470Z,32.95
2023-02-14T11:45:05.518Z,32.75
2023-02-14T11:50:21.694Z,32.45
2023-02-14T11:55:29.164Z,32.17
2023-02-14T12:00:31.497Z,33.17
2023-02-14T12:05:47.579Z,34.08
2023-02-14T12:11:02.462Z,35.00
2023-02-14T12:16:04.318Z,34.53
2023-02-14T12:21:33.033Z,34.78
2023-02-14T12:27:00.510Z,34.75
2023-02-14T12:32:12.538Z,35.70
2023-02-14T12:37:27.489Z,37.22
2023-02-14T12:42:57.169Z,37.35
2023-02-14T12:48:17.045Z,36.60
2023-02-14T12:53:50.988Z,33.88
2023-02-14T12:59:25.620Z,33.92
2023-02-14T13:04:44.600Z,33.45
2023-02-14T13:09:59.782Z,34.92
2023-02-14T13:15:23.460Z,34.00
2023-02-14T13:20:31.126Z,34.75
2023-02-14T13:30:41.215Z,36.75
2023-02-14T13:35:43.114Z,36.50
2023-02-14T13:40:45.581Z,38.00
2023-02-14T13:45:55.171Z,38.00
2023-02-14T13:51:02.436Z,40.40
2023-02-14T13:56:25.219Z,40.72
2023-02-14T14:01:50.623Z,40.30
2023-02-14T14:07:23.181Z,39.85
2023-02-14T14:12:27.585Z,41.63
2023-02-14T14:17:29.197Z,39.55
2023-02-14T14:22:30.989Z,38.58
2023-02-14T14:27:40.381Z,38.60
2023-02-14T14:32:41.925Z,39.58
2023-02-14T14:37:55.086Z,40.97
2023-02-14T14:43:01.841Z,40.17
2023-02-14T14:48:10.298Z,39.53
2023-02-14T14:53:48.879Z,39.67
2023-02-14T14:58:51.346Z,39.72
2023-02-14T15:03:52.920Z,38.25
2023-02-14T15:08:54.886Z,39.28
2023-02-14T15:13:58.322Z,41.22
2023-02-14T15:19:07.468Z,40.53
2023-02-14T15:24:14.727Z,40.08
2023-02-14T15:29:28.657Z,38.95
2023-02-14T15:34:33.584Z,37.65
2023-02-14T15:39:44.611Z,40.80
2023-02-14T15:44:46.110Z,40.80
2023-02-14T15:49:47.685Z,41.25
2023-02-14T15:54:49.188Z,40.38
2023-02-14T15:59:51.125Z,42.10
2023-02-14T16:04:52.874Z,40.97
2023-02-14T16:10:23.154Z,43.50
2023-02-14T16:15:30.090Z,50.38
2023-02-14T16:20:34.502Z,48.93
2023-02-14T16:25:36.051Z,44.42
2023-02-14T16:30:39.623Z,44.20
2023-02-14T16:35:41.243Z,48.42
2023-02-14T16:40:45.625Z,44.45
2023-02-14T16:45:47.406Z,46.65
2023-02-14T16:50:48.985Z,51.03
2023-02-14T16:55:53.296Z,57.20
2023-02-14T17:00:54.883Z,57.95
2023-02-14T17:05:58.140Z,53.92
2023-02-14T17:11:02.104Z,55.45
2023-02-14T17:16:06.457Z,50.97
2023-02-14T17:21:08.053Z,51.05
2023-02-14T17:26:11.183Z,55.05
2023-02-14T17:31:13.381Z,64.22
2023-02-14T17:36:15.099Z,59.60
2023-02-14T17:41:20.292Z,53.85
2023-02-14T17:46:22.110Z,53.80
2023-02-14T17:51:24.184Z,48.65
2023-02-14T17:56:26.511Z,49.85
2023-02-14T18:01:31.511Z,51.95
2023-02-14T18:06:33.580Z,49.83
2023-02-14T18:11:35.206Z,52.38
2023-02-14T18:16:38.881Z,55.92
2023-02-14T18:21:40.452Z,61.97
2023-02-14T18:26:43.377Z,55.42
2023-02-14T18:31:45.236Z,53.13
2023-02-14T18:36:47.916Z,54.28
2023-02-14T18:41:49.472Z,48.58
2023-02-14T18:46:50.959Z,48.67
2023-02-14T18:51:54.830Z,49.80
2023-02-14T18:56:56.363Z,47.72
2023-02-14T19:01:57.883Z,48.08
2023-02-14T19:06:59.552Z,47.75
2023-02-14T19:12:01.080Z,50.80
2023-02-14T19:17:04.404Z,47.67
2023-02-14T19:22:06.084Z,47.85
2023-02-14T19:27:07.700Z,51.42
2023-02-14T19:32:09.356Z,49.47
2023-02-14T19:37:10.918Z,51.08
2023-02-14T19:42:12.610Z,51.90
2023-02-14T19:47:27.191Z,50.60
2023-02-14T19:52:35.223Z,53.85
2023-02-14T19:57:36.721Z,53.38
2023-02-14T20:02:38.360Z,56.50
2023-02-14T20:07:39.934Z,50.50
2023-02-14T20:12:41.657Z,49.10
2023-02-14T20:17:43.237Z,53.70
2023-02-14T20:22:44.832Z,53.60
2023-02-14T20:27:46.383Z,54.08
2023-02-14T20:32:48.140Z,48.65
2023-02-14T20:37:52.001Z,49.60
2023-02-14T20:42:53.469Z,49.63
2023-02-14T20:47:55.131Z,46.90
2023-02-14T20:52:56.706Z,49.53
2023-02-14T20:58:02.475Z,50.22
2023-02-14T21:03:04.582Z,49.83
2023-02-14T21:08:06.136Z,51.90
2023-02-14T21:13:07.666Z,57.67
2023-02-14T21:18:09.170Z,62.00
2023-02-14T21:23:11.053Z,58.58
2023-02-14T21:28:12.557Z,58.67
2023-02-14T21:33:15.410Z,58.28
2023-02-14T21:38:16.954Z,60.15
2023-02-14T21:43:19.541Z,60.83
2023-02-14T21:48:39.512Z,58.50
2023-02-14T21:53:42.374Z,57.53
2023-02-14T21:58:44.254Z,58.75
2023-02-14T22:03:46.612Z,63.65
2023-02-14T22:08:56.097Z,57.45
2023-02-14T22:13:57.602Z,55.20
2023-02-14T22:18:59.131Z,56.45
2023-02-14T22:24:01.335Z,57.25
2023-02-14T22:29:03.154Z,55.83
2023-02-14T22:34:06.152Z,62.20
2023-02-14T22:39:07.786Z,67.30
2023-02-14T22:44:09.802Z,64.97
2023-02-14T22:49:11.346Z,61.38
2023-02-14T22:54:15.321Z,62.15
2023-02-14T22:59:28.206Z,61.97
2023-02-14T23:04:29.826Z,61.25
2023-02-14T23:09:31.404Z,63.08
2023-02-14T23:14:51.671Z,61.22
2023-02-14T23:20:11.555Z,58.85
2023-02-14T23:25:13.118Z,58.65
2023-02-14T23:30:17.017Z,59.00
2023-02-14T23:35:18.594Z,58.80
2023-02-14T23:40:20.859Z,58.88
2023-02-14T23:45:34.714Z,60.15
2023-02-14T23:50:36.292Z,65.95
2023-02-14T23:55:37.827Z,64.85
